Time;durP1;ratioP1;P1;durP2;ratioP2;P2;SDS_P1;SDS_P2;PMS_P1;PMS_P2;Temp;Humidity;BMP_temperature;BMP_pressure;BME280_temperature;BME280_humidity;BME280_pressure;Samples;Min_cycle;Max_cycle;Signal;HPM_P1;HPM_P2
2021/07/02 00:00:59;;;;;;;6.28;2.10;;;24.60;32.40;;;;;;20545360;28;80571;-66
2021/07/02 00:11:02;;;;;;;7.38;2.47;;;24.50;32.40;;;;;;20537529;28;81068;-67
2021/07/02 00:21:04;;;;;;;4.22;2.22;;;24.30;31.80;;;;;;20556033;28;81525;-67
2021/07/02 00:31:05;;;;;;;3.47;1.60;;;24.30;31.40;;;;;;20540539;28;80638;-67
2021/07/02 00:41:07;;;;;;;3.65;1.88;;;24.10;31.70;;;;;;20542432;28;80615;-66
2021/07/02 00:51:09;;;;;;;4.43;2.03;;;23.90;32.70;;;;;;20538945;28;80540;-66
2021/07/02 01:01:15;;;;;;;4.38;1.83;;;23.80;33.30;;;;;;20535658;28;80659;-67
2021/07/02 01:11:17;;;;;;;3.88;2.10;;;23.60;33.90;;;;;;20505225;28;80301;-67
2021/07/02 01:21:19;;;;;;;3.40;2.10;;;23.40;34.90;;;;;;20523579;28;80658;-67
2021/07/02 01:31:22;;;;;;;7.07;2.33;;;23.30;35.40;;;;;;20529693;28;80588;-67
2021/07/02 01:41:29;;;;;;;5.15;2.47;;;23.20;36.00;;;;;;20535902;28;81651;-67
2021/07/02 01:51:38;;;;;;;6.65;2.50;;;23.10;36.40;;;;;;20538170;28;81041;-67
2021/07/02 02:01:48;;;;;;;6.28;2.83;;;23.00;36.70;;;;;;20554095;28;80511;-67
2021/07/02 02:11:53;;;;;;;4.85;2.67;;;22.80;37.20;;;;;;20554413;28;80838;-67
2021/07/02 02:21:56;;;;;;;6.90;2.72;;;22.70;37.80;;;;;;20542870;28;80648;-67
2021/07/02 02:31:58;;;;;;;9.93;2.40;;;22.60;38.30;;;;;;20552892;28;81801;-67
2021/07/02 02:42:01;;;;;;;7.13;2.15;;;22.50;38.10;;;;;;20548461;28;81571;-67
2021/07/02 02:52:04;;;;;;;9.25;2.40;;;22.40;37.40;;;;;;20539386;28;81600;-66
2021/07/02 03:02:08;;;;;;;8.30;2.20;;;22.30;37.30;;;;;;20544931;28;80875;-67
2021/07/02 03:12:13;;;;;;;7.15;2.05;;;22.20;37.20;;;;;;20543680;28;80680;-67
2021/07/02 03:22:18;;;;;;;7.97;2.20;;;22.00;37.60;;;;;;20520357;28;80953;-69
2021/07/02 03:32:24;;;;;;;5.15;2.33;;;21.80;38.10;;;;;;20546959;28;79996;-67
2021/07/02 03:42:28;;;;;;;4.85;2.05;;;21.80;38.50;;;;;;20544290;28;81484;-66
2021/07/02 03:52:32;;;;;;;4.43;2.28;;;21.70;38.90;;;;;;20541630;28;80711;-67
2021/07/02 04:02:36;;;;;;;4.88;2.10;;;21.60;39.00;;;;;;20543347;28;80821;-66
2021/07/02 04:12:50;;;;;;;5.82;2.55;;;21.60;38.60;;;;;;20539271;28;81361;-66
2021/07/02 04:23:00;;;;;;;3.75;1.92;;;21.50;39.60;;;;;;20516095;28;80342;-66
2021/07/02 04:33:16;;;;;;;5.03;2.50;;;21.40;39.00;;;;;;20537983;28;80755;-66
2021/07/02 04:43:29;;;;;;;37.83;22.80;;;21.20;38.40;;;;;;20540743;28;81339;-67
2021/07/02 04:53:51;;;;;;;4.63;2.00;;;21.10;37.90;;;;;;20512413;28;82912;-66
2021/07/02 05:03:57;;;;;;;4.50;1.80;;;21.00;37.30;;;;;;20523955;28;82008;-65
2021/07/02 05:14:06;;;;;;;3.63;1.65;;;21.00;37.30;;;;;;20517376;28;80681;-65
2021/07/02 05:24:10;;;;;;;5.10;2.20;;;20.90;37.30;;;;;;20506807;28;80346;-67
2021/07/02 05:34:15;;;;;;;7.13;2.25;;;20.80;37.70;;;;;;20469330;28;80634;-66
2021/07/02 05:44:18;;;;;;;7.22;2.00;;;20.90;38.20;;;;;;20509234;28;80450;-65
2021/07/02 05:54:24;;;;;;;9.48;2.42;;;20.80;39.30;;;;;;20550772;28;80587;-66
2021/07/02 06:04:30;;;;;;;21.90;10.48;;;20.90;39.40;;;;;;20535103;28;81335;-67
2021/07/02 06:14:36;;;;;;;8.43;2.72;;;20.90;40.10;;;;;;20457898;28;83015;-68
2021/07/02 06:24:39;;;;;;;;;;;20.90;40.30;;;;;;20483952;28;83315;-68
2021/07/02 06:34:42;;;;;;;9.43;2.60;;;20.90;40.20;;;;;;20537745;28;79030;-68
2021/07/02 06:44:44;;;;;;;12.73;3.47;;;21.10;39.80;;;;;;20534887;28;80310;-70
2021/07/02 06:54:47;;;;;;;133.23;82.28;;;21.20;40.30;;;;;;20548954;28;80199;-69
2021/07/02 07:04:49;;;;;;;13.05;4.60;;;21.50;40.30;;;;;;20518531;28;82987;-68
2021/07/02 07:14:52;;;;;;;11.75;4.75;;;21.90;36.50;;;;;;20527903;28;83443;-68
2021/07/02 07:24:56;;;;;;;8.15;3.53;;;22.30;34.40;;;;;;20517411;28;81024;-69
2021/07/02 07:35:01;;;;;;;10.80;3.30;;;22.50;34.50;;;;;;20535593;28;81300;-70
2021/07/02 07:45:04;;;;;;;18.48;4.72;;;22.80;33.20;;;;;;20502558;28;80173;-71
2021/07/02 07:55:08;;;;;;;15.52;6.00;;;23.00;32.90;;;;;;20542523;28;80938;-70
2021/07/02 08:05:12;;;;;;;13.40;4.78;;;23.40;33.50;;;;;;20518760;28;81447;-69
2021/07/02 08:15:17;;;;;;;12.52;4.47;;;23.50;32.30;;;;;;20536620;28;81088;-68
2021/07/02 08:25:19;;;;;;;11.82;3.53;;;23.80;32.00;;;;;;20525544;28;81154;-68
2021/07/02 08:35:23;;;;;;;15.57;4.30;;;24.10;31.50;;;;;;20522348;28;80752;-69
2021/07/02 08:45:28;;;;;;;12.40;3.67;;;24.40;32.00;;;;;;20535988;28;81130;-68
2021/07/02 08:55:32;;;;;;;13.20;7.68;;;24.60;31.70;;;;;;20541528;28;80367;-68
2021/07/02 09:05:36;;;;;;;9.05;3.63;;;25.00;31.10;;;;;;20533233;28;81253;-69
2021/07/02 09:15:43;;;;;;;12.27;3.53;;;25.40;31.30;;;;;;20536468;28;81382;-68
2021/07/02 09:25:52;;;;;;;6.93;2.92;;;25.70;31.40;;;;;;20514013;28;80626;-69
2021/07/02 09:35:59;;;;;;;6.72;2.63;;;26.10;29.60;;;;;;20539389;28;80473;-69
2021/07/02 09:46:04;;;;;;;9.02;3.85;;;26.60;29.90;;;;;;20532804;28;80978;-69
2021/07/02 09:56:20;;;;;;;5.35;3.30;;;27.20;29.40;;;;;;20519189;28;80256;-69
2021/07/02 10:06:27;;;;;;;14.18;3.78;;;27.90;28.00;;;;;;20534075;28;81791;-69
2021/07/02 10:16:32;;;;;;;8.00;3.28;;;28.40;28.50;;;;;;20539822;28;81099;-69
2021/07/02 10:26:37;;;;;;;9.40;5.65;;;28.80;28.70;;;;;;20500131;28;81312;-70
2021/07/02 10:36:41;;;;;;;6.05;3.85;;;29.30;28.20;;;;;;20551656;28;80587;-70
2021/07/02 10:46:49;;;;;;;6.50;3.88;;;29.50;27.90;;;;;;20552136;28;80786;-69
2021/07/02 10:57:01;;;;;;;6.60;3.20;;;30.10;27.00;;;;;;20548348;28;80483;-69
2021/07/02 11:07:27;;;;;;;3.80;2.38;;;33.40;23.30;;;;;;20511115;28;80748;-69
2021/07/02 11:17:34;;;;;;;7.55;3.15;;;36.60;20.10;;;;;;20479520;28;80752;-69
2021/07/02 11:27:42;;;;;;;5.03;2.20;;;36.00;20.00;;;;;;20550293;28;80758;-69
2021/07/02 11:38:10;;;;;;;3.67;1.58;;;35.50;20.50;;;;;;20543214;28;80771;-69
2021/07/02 11:48:24;;;;;;;2.17;1.27;;;36.30;19.40;;;;;;20543794;28;80659;-69
2021/07/02 11:58:54;;;;;;;2.58;1.55;;;39.00;17.60;;;;;;20541293;28;80074;-70
2021/07/02 12:08:56;;;;;;;;;;;41.70;15.80;;;;;;20532005;28;80507;-69
2021/07/02 12:19:01;;;;;;;2.53;1.70;;;43.00;15.00;;;;;;20547840;28;75197;-69
2021/07/02 12:29:13;;;;;;;4.00;1.30;;;44.50;13.90;;;;;;20527344;28;80044;-70
2021/07/02 12:39:15;;;;;;;2.60;1.90;;;45.00;13.50;;;;;;20534504;28;80780;-69
2021/07/02 12:49:23;;;;;;;1.77;1.38;;;45.60;13.20;;;;;;20537559;28;80697;-70
2021/07/02 12:59:24;;;;;;;;;;;47.10;11.90;;;;;;20538824;28;80589;-68
2021/07/02 13:09:26;;;;;;;3.65;2.33;;;47.00;12.00;;;;;;20554783;28;80607;-69
2021/07/02 13:19:30;;;;;;;6.57;2.90;;;45.50;13.30;;;;;;20532415;28;81427;-69
2021/07/02 13:29:33;;;;;;;4.95;4.13;;;45.70;13.00;;;;;;20549132;28;81277;-70
2021/07/02 13:39:44;;;;;;;5.57;3.35;;;46.30;12.90;;;;;;20541166;28;81670;-71
2021/07/02 13:49:45;;;;;;;5.32;3.00;;;42.60;14.20;;;;;;20548065;28;80779;-70
2021/07/02 13:59:47;;;;;;;3.95;2.47;;;38.50;16.20;;;;;;20560738;28;80796;-69
2021/07/02 14:09:49;;;;;;;3.65;1.17;;;36.50;17.80;;;;;;20547051;28;81334;-69
2021/07/02 14:19:51;;;;;;;2.50;1.70;;;35.50;17.20;;;;;;20545970;28;80743;-68
2021/07/02 14:29:53;;;;;;;5.18;3.58;;;34.80;18.30;;;;;;20540845;28;80978;-70
2021/07/02 14:39:56;;;;;;;4.47;2.53;;;34.40;18.70;;;;;;20545587;28;80793;-70
2021/07/02 14:49:57;;;;;;;2.72;1.60;;;34.20;18.80;;;;;;20544301;28;80713;-68
2021/07/02 15:00:00;;;;;;;4.03;1.58;;;33.90;18.60;;;;;;20541143;28;81550;-69
2021/07/02 15:10:02;;;;;;;3.08;1.98;;;33.50;19.50;;;;;;20561831;28;80973;-69
2021/07/02 15:20:05;;;;;;;2.83;1.38;;;33.40;19.60;;;;;;20538488;28;80698;-69
2021/07/02 15:30:38;;;;;;;8.10;4.47;;;33.00;19.60;;;;;;20536214;28;80881;-69
2021/07/02 15:40:40;;;;;;;5.03;3.53;;;33.00;19.70;;;;;;20531692;28;80744;-70
2021/07/02 15:50:42;;;;;;;5.20;2.20;;;32.80;19.60;;;;;;20626054;28;80742;-68
2021/07/02 16:00:44;;;;;;;2.22;1.48;;;32.50;20.10;;;;;;20624244;28;80656;-68
2021/07/02 16:10:47;;;;;;;2.10;1.00;;;32.40;19.60;;;;;;20548476;28;81283;-68
2021/07/02 16:20:48;;;;;;;3.58;1.13;;;32.20;19.60;;;;;;20514055;28;83778;-69
2021/07/02 16:30:50;;;;;;;2.50;0.90;;;32.10;19.60;;;;;;20520366;28;80673;-70
2021/07/02 16:40:52;;;;;;;6.38;1.95;;;32.10;19.60;;;;;;20513752;28;80480;-68
2021/07/02 16:50:54;;;;;;;17.70;3.55;;;31.30;21.40;;;;;;20495209;28;81169;-68
2021/07/02 17:00:57;;;;;;;18.65;3.75;;;30.80;22.40;;;;;;20524670;28;80840;-68
2021/07/02 17:10:58;;;;;;;19.38;4.05;;;31.00;22.10;;;;;;20537703;28;80281;-70
2021/07/02 17:21:00;;;;;;;12.88;5.03;;;29.90;24.50;;;;;;20549402;28;80221;-69
2021/07/02 17:31:01;;;;;;;9.73;6.53;;;30.40;23.20;;;;;;20543049;28;81300;-68
2021/07/02 17:41:03;;;;;;;17.55;7.20;;;30.50;23.00;;;;;;20551799;28;80601;-68
2021/07/02 17:51:04;;;;;;;11.25;5.15;;;30.50;23.10;;;;;;20541818;28;80572;-69
2021/07/02 18:01:06;;;;;;;6.00;3.67;;;29.70;24.20;;;;;;20538181;28;80582;-69
2021/07/02 18:11:08;;;;;;;10.40;3.83;;;30.00;23.50;;;;;;20531298;28;81485;-68
2021/07/02 18:21:10;;;;;;;5.45;3.50;;;30.00;23.60;;;;;;20526864;28;81431;-69
2021/07/02 18:31:12;;;;;;;8.43;3.60;;;30.00;23.80;;;;;;20540813;28;80895;-70
2021/07/02 18:41:15;;;;;;;6.38;3.40;;;29.90;24.00;;;;;;20535799;28;81617;-70
2021/07/02 18:51:17;;;;;;;7.15;4.13;;;29.90;24.00;;;;;;20527875;28;80741;-69
2021/07/02 19:01:18;;;;;;;12.70;6.32;;;29.70;24.20;;;;;;20525753;28;81828;-68
2021/07/02 19:11:21;;;;;;;7.20;4.82;;;29.60;24.30;;;;;;20535872;28;83118;-68
2021/07/02 19:21:23;;;;;;;7.40;5.40;;;29.40;24.80;;;;;;20534390;28;80484;-69
2021/07/02 19:31:26;;;;;;;9.45;5.00;;;29.30;25.10;;;;;;20538947;28;81547;-69
2021/07/02 19:41:28;;;;;;;9.35;5.13;;;29.20;25.40;;;;;;20518012;28;81398;-69
2021/07/02 19:51:31;;;;;;;5.68;3.75;;;29.00;26.00;;;;;;20534671;28;82368;-69
2021/07/02 20:01:34;;;;;;;7.03;4.15;;;28.90;26.10;;;;;;20531125;28;81304;-70
2021/07/02 20:11:36;;;;;;;5.18;3.60;;;28.80;26.10;;;;;;20519909;28;81111;-69
2021/07/02 20:21:38;;;;;;;5.88;2.83;;;28.70;26.60;;;;;;20517668;28;81307;-69
2021/07/02 20:31:40;;;;;;;6.18;2.88;;;28.60;26.40;;;;;;20525221;28;81280;-68
2021/07/02 20:41:42;;;;;;;3.83;2.15;;;28.50;26.70;;;;;;20527738;28;81985;-69
2021/07/02 20:51:44;;;;;;;7.35;2.08;;;28.40;27.10;;;;;;20516121;28;80740;-69
2021/07/02 21:01:46;;;;;;;3.92;1.90;;;28.40;26.90;;;;;;20529656;28;80736;-69
2021/07/02 21:11:47;;;;;;;4.20;2.13;;;28.20;27.30;;;;;;20523290;28;82022;-69
2021/07/02 21:21:49;;;;;;;4.65;2.38;;;28.20;27.10;;;;;;20525965;28;81618;-68
2021/07/02 21:31:51;;;;;;;2.30;1.20;;;28.10;26.60;;;;;;20528927;28;81591;-69
2021/07/02 21:41:53;;;;;;;3.85;1.42;;;28.00;26.50;;;;;;20520512;28;80897;-69
2021/07/02 21:51:56;;;;;;;4.80;1.58;;;27.90;26.70;;;;;;20534887;28;81088;-70
2021/07/02 22:01:59;;;;;;;8.02;3.42;;;27.90;27.00;;;;;;20536953;28;80188;-69
2021/07/02 22:12:01;;;;;;;3.63;1.65;;;27.80;27.60;;;;;;20550907;28;80660;-70
2021/07/02 22:22:03;;;;;;;5.72;2.60;;;27.70;27.20;;;;;;20543114;28;81610;-70
2021/07/02 22:32:06;;;;;;;2.95;1.30;;;27.60;27.70;;;;;;20556386;28;80706;-71
2021/07/02 22:42:08;;;;;;;3.10;1.10;;;27.50;27.10;;;;;;20544380;28;81255;-71
2021/07/02 22:52:09;;;;;;;6.10;1.75;;;27.10;27.60;;;;;;20547855;28;81120;-71
2021/07/02 23:02:11;;;;;;;3.00;1.30;;;26.80;28.50;;;;;;20550739;28;80419;-71
2021/07/02 23:12:14;;;;;;;1.90;1.33;;;26.60;28.80;;;;;;20538365;28;81260;-71
2021/07/02 23:22:19;;;;;;;3.55;1.73;;;26.40;29.10;;;;;;20544848;28;80817;-72
2021/07/02 23:32:20;;;;;;;4.03;1.70;;;26.10;29.80;;;;;;20547204;28;80554;-72
2021/07/02 23:42:22;;;;;;;2.35;1.23;;;25.90;30.60;;;;;;20545363;28;80040;-72
2021/07/02 23:52:24;;;;;;;4.47;1.15;;;25.80;31.00;;;;;;20531847;28;80997;-72
